createdAt,value
2018-02-19T00:01:01.303Z,27.43
2018-02-19T00:03:29.741Z,25.23
2018-02-19T00:05:58.223Z,25.13
2018-02-19T00:08:26.654Z,25.23
2018-02-19T00:10:55.076Z,24.50
2018-02-19T00:13:23.522Z,24.00
2018-02-19T00:15:51.958Z,22.87
2018-02-19T00:18:20.998Z,26.80
2018-02-19T00:20:49.699Z,26.70
2018-02-19T00:23:18.077Z,24.93
2018-02-19T00:25:46.491Z,25.60
2018-02-19T00:28:14.941Z,26.10
2018-02-19T00:30:43.366Z,24.37
2018-02-19T00:33:11.899Z,24.17
2018-02-19T00:35:40.279Z,26.90
2018-02-19T00:38:08.666Z,24.30
2018-02-19T00:40:37.083Z,24.80
2018-02-19T00:43:05.466Z,25.40
2018-02-19T00:45:34.593Z,26.23
2018-02-19T00:48:03.753Z,25.60
2018-02-19T00:50:32.148Z,24.40
2018-02-19T00:53:00.561Z,26.20
2018-02-19T00:55:28.957Z,25.23
2018-02-19T00:57:57.336Z,25.53
2018-02-19T01:00:25.726Z,24.80
2018-02-19T01:02:54.196Z,25.93
2018-02-19T01:05:22.580Z,24.90
2018-02-19T01:07:51.142Z,27.87
2018-02-19T01:10:19.511Z,24.67
2018-02-19T01:12:47.942Z,26.93
2018-02-19T01:15:16.340Z,25.30
2018-02-19T01:17:44.754Z,25.63
2018-02-19T01:20:13.121Z,25.13
2018-02-19T01:22:42.256Z,23.97
2018-02-19T01:25:10.663Z,24.90
2018-02-19T01:27:39.067Z,25.10
2018-02-19T01:30:08.290Z,23.27
2018-02-19T01:32:36.665Z,24.77
2018-02-19T01:35:05.069Z,24.23
2018-02-19T01:37:33.438Z,24.70
2018-02-19T01:40:01.833Z,23.60
2018-02-19T01:42:30.289Z,25.40
2018-02-19T01:44:58.693Z,26.67
2018-02-19T01:47:27.068Z,26.80
2018-02-19T01:50:13.215Z,22.87
2018-02-19T01:52:42.344Z,22.40
2018-02-19T01:55:10.732Z,26.13
2018-02-19T01:57:39.101Z,24.00
2018-02-19T02:00:07.506Z,24.07
2018-02-19T02:02:35.896Z,26.13
2018-02-19T02:05:05.881Z,24.70
2018-02-19T02:07:34.277Z,26.50
2018-02-19T02:10:02.651Z,26.40
2018-02-19T02:12:31.048Z,25.10
2018-02-19T02:14:59.418Z,26.20
2018-02-19T02:17:28.614Z,28.20
2018-02-19T02:19:56.990Z,26.90
2018-02-19T02:22:25.383Z,28.47
2018-02-19T02:24:53.826Z,26.53
2018-02-19T02:27:22.298Z,26.20
2018-02-19T02:29:50.690Z,25.67
2018-02-19T02:32:19.078Z,25.53
2018-02-19T02:34:47.597Z,29.00
2018-02-19T02:37:16.757Z,26.60
2018-02-19T02:39:45.149Z,26.47
2018-02-19T02:42:13.567Z,24.93
2018-02-19T02:44:41.956Z,23.47
2018-02-19T02:47:10.335Z,26.20
2018-02-19T02:49:38.735Z,24.57
2018-02-19T02:52:07.133Z,23.70
2018-02-19T02:54:35.526Z,23.83
2018-02-19T02:57:03.925Z,25.03
2018-02-19T02:59:33.090Z,22.47
2018-02-19T03:02:01.493Z,24.87
2018-02-19T03:04:30.666Z,22.10
2018-02-19T03:06:59.098Z,25.60
2018-02-19T03:09:27.595Z,24.47
2018-02-19T03:11:55.964Z,24.40
2018-02-19T03:14:24.367Z,23.53
2018-02-19T03:16:52.811Z,24.50
2018-02-19T03:19:21.971Z,24.30
2018-02-19T03:21:50.369Z,22.37
2018-02-19T03:24:18.731Z,23.60
2018-02-19T03:26:47.146Z,24.90
2018-02-19T03:29:15.635Z,25.00
2018-02-19T03:31:44.028Z,22.97
2018-02-19T03:34:12.442Z,24.53
2018-02-19T03:36:40.812Z,24.03
2018-02-19T03:39:09.222Z,24.03
2018-02-19T03:41:38.368Z,22.67
2018-02-19T03:44:06.770Z,23.47
2018-02-19T03:46:35.185Z,24.87
2018-02-19T03:49:03.586Z,23.17
2018-02-19T03:51:31.953Z,24.70
2018-02-19T03:54:00.337Z,23.90
2018-02-19T03:56:28.726Z,25.07
2018-02-19T03:58:57.130Z,24.10
2018-02-19T04:01:25.500Z,24.70
2018-02-19T04:03:53.891Z,22.50
2018-02-19T04:06:22.266Z,23.87
2018-02-19T04:08:50.666Z,23.93
2018-02-19T04:11:19.058Z,21.70
2018-02-19T04:13:47.476Z,25.27
2018-02-19T04:16:15.861Z,23.53
2018-02-19T04:18:44.264Z,22.60
2018-02-19T04:21:12.674Z,24.20
2018-02-19T04:23:41.049Z,23.60
2018-02-19T04:26:09.430Z,22.33
2018-02-19T04:28:37.825Z,25.03
2018-02-19T04:31:07.006Z,24.97
2018-02-19T04:33:35.412Z,28.67
2018-02-19T04:36:03.789Z,26.90
2018-02-19T04:38:32.183Z,26.10
2018-02-19T04:41:00.575Z,25.87
2018-02-19T04:43:28.953Z,26.30
2018-02-19T04:46:03.349Z,23.60
2018-02-19T04:48:37.034Z,24.73
2018-02-19T04:51:06.206Z,23.23
2018-02-19T04:53:34.640Z,22.80
2018-02-19T04:56:03.117Z,25.67
2018-02-19T04:58:31.552Z,21.00
2018-02-19T05:00:59.940Z,22.57
2018-02-19T05:03:29.197Z,23.67
2018-02-19T05:05:57.625Z,23.60
2018-02-19T05:08:26.868Z,22.73
2018-02-19T05:10:55.259Z,24.07
2018-02-19T05:13:23.671Z,24.07
2018-02-19T05:15:52.049Z,21.53
2018-02-19T05:18:20.412Z,23.70
2018-02-19T05:20:48.828Z,21.73
2018-02-19T05:23:18.062Z,24.17
2018-02-19T05:25:46.479Z,22.50
2018-02-19T05:28:14.894Z,25.37
2018-02-19T05:30:43.261Z,23.00
2018-02-19T05:33:12.418Z,25.50
2018-02-19T05:35:40.816Z,23.63
2018-02-19T05:38:09.953Z,24.73
2018-02-19T05:40:38.351Z,23.50
2018-02-19T05:43:06.787Z,23.00
2018-02-19T05:45:35.945Z,24.20
2018-02-19T05:48:04.303Z,24.50
2018-02-19T05:50:32.680Z,24.77
2018-02-19T05:53:01.087Z,25.80
2018-02-19T05:55:29.462Z,24.53
2018-02-19T05:57:57.842Z,26.70
2018-02-19T06:00:26.259Z,25.07
2018-02-19T06:02:55.417Z,23.57
2018-02-19T06:05:23.797Z,22.57
2018-02-19T06:07:52.172Z,23.60
2018-02-19T06:10:20.565Z,23.23
2018-02-19T06:12:48.969Z,23.43
2018-02-19T06:15:18.121Z,21.37
2018-02-19T06:17:46.584Z,23.87
2018-02-19T06:20:15.006Z,23.20
2018-02-19T06:22:43.383Z,24.93
2018-02-19T06:25:11.757Z,22.23
2018-02-19T06:27:40.165Z,25.57
2018-02-19T06:30:09.318Z,24.77
2018-02-19T06:32:37.715Z,22.90
2018-02-19T06:35:06.089Z,23.93
2018-02-19T06:37:34.474Z,23.40
2018-02-19T06:40:02.877Z,23.77
2018-02-19T06:42:31.311Z,24.10
2018-02-19T06:44:59.682Z,22.73
2018-02-19T06:47:28.037Z,22.00
2018-02-19T06:49:56.436Z,23.17
2018-02-19T06:52:24.816Z,24.37
2018-02-19T06:54:53.232Z,25.87
2018-02-19T06:57:22.423Z,21.60
2018-02-19T06:59:50.819Z,23.50
2018-02-19T07:02:20.012Z,24.07
2018-02-19T07:04:49.192Z,22.00
2018-02-19T07:07:17.565Z,21.80
2018-02-19T07:09:45.954Z,21.97
2018-02-19T07:12:15.122Z,21.60
2018-02-19T07:14:43.510Z,21.00
2018-02-19T07:17:11.904Z,21.10
2018-02-19T07:19:40.266Z,21.77
2018-02-19T07:22:08.670Z,24.00
2018-02-19T07:24:37.830Z,23.30
2018-02-19T07:27:06.209Z,23.00
2018-02-19T07:29:34.600Z,23.00
2018-02-19T07:32:02.981Z,23.60
2018-02-19T07:34:31.389Z,23.13
2018-02-19T07:37:00.518Z,21.73
2018-02-19T07:39:28.892Z,22.40
2018-02-19T07:41:57.284Z,25.33
2018-02-19T07:44:25.672Z,23.53
2018-02-19T07:46:54.085Z,21.80
2018-02-19T07:49:22.477Z,20.20
2018-02-19T07:51:51.619Z,20.87
2018-02-19T07:54:20.024Z,21.70
2018-02-19T07:56:48.470Z,21.87
2018-02-19T07:59:16.853Z,23.13
2018-02-19T08:01:45.269Z,22.70
2018-02-19T08:04:13.660Z,22.80
2018-02-19T08:06:42.802Z,25.33
2018-02-19T08:09:11.203Z,23.00
2018-02-19T08:11:39.666Z,23.67
2018-02-19T08:14:08.061Z,22.90
2018-02-19T08:16:36.450Z,23.23
2018-02-19T08:19:04.837Z,23.10
2018-02-19T08:21:33.237Z,22.23
2018-02-19T08:24:02.398Z,22.60
2018-02-19T08:26:30.775Z,21.00
2018-02-19T08:28:59.158Z,20.93
2018-02-19T08:31:27.587Z,21.03
2018-02-19T08:33:55.955Z,21.77
2018-02-19T08:36:25.097Z,21.70
2018-02-19T08:38:53.533Z,20.07
2018-02-19T08:41:21.890Z,20.67
2018-02-19T08:43:50.290Z,20.27
2018-02-19T08:46:18.801Z,21.33
2018-02-19T08:48:47.205Z,21.90
2018-02-19T08:51:15.590Z,20.70
2018-02-19T08:53:44.020Z,20.33
2018-02-19T08:56:12.406Z,20.27
2018-02-19T08:58:40.786Z,20.00
2018-02-19T09:01:09.173Z,20.77
2018-02-19T09:03:37.541Z,20.77
2018-02-19T09:06:05.947Z,23.07
2018-02-19T09:08:34.316Z,21.03
2018-02-19T09:11:02.688Z,20.10
2018-02-19T09:13:31.078Z,20.20
2018-02-19T09:15:59.461Z,19.73
2018-02-19T09:18:27.861Z,18.50
2018-02-19T09:20:56.236Z,21.17
2018-02-19T09:23:24.648Z,21.90
2018-02-19T09:25:53.778Z,20.77
2018-02-19T09:28:22.177Z,20.33
2018-02-19T09:30:50.558Z,20.30
2018-02-19T09:33:18.948Z,19.93
2018-02-19T09:35:47.362Z,19.67
2018-02-19T09:38:15.740Z,21.63
2018-02-19T09:40:44.121Z,21.17
2018-02-19T09:43:12.642Z,20.60
2018-02-19T09:45:41.063Z,21.00
2018-02-19T09:48:10.194Z,19.50
2018-02-19T09:50:38.574Z,21.10
2018-02-19T09:53:06.966Z,20.07
2018-02-19T09:55:35.335Z,20.83
2018-02-19T09:58:03.733Z,21.43
2018-02-19T10:00:32.127Z,22.57
2018-02-19T10:03:00.546Z,21.63
2018-02-19T10:05:29.712Z,23.13
2018-02-19T10:07:58.045Z,21.00
2018-02-19T10:10:26.448Z,21.20
2018-02-19T10:12:54.902Z,24.13
2018-02-19T10:15:23.256Z,21.50
2018-02-19T10:17:52.429Z,21.00
2018-02-19T10:20:20.793Z,18.40
2018-02-19T10:22:49.245Z,20.60
2018-02-19T10:25:17.645Z,22.00
2018-02-19T10:27:46.024Z,22.17
2018-02-19T10:30:14.389Z,20.10
2018-02-19T10:35:17.387Z,21.07
2018-02-19T10:37:45.766Z,21.83
2018-02-19T10:40:14.141Z,21.90
2018-02-19T10:42:42.607Z,18.53
2018-02-19T10:45:11.008Z,21.70
2018-02-19T10:47:39.382Z,22.77
2018-02-19T10:50:07.784Z,19.70
2018-02-19T10:52:36.162Z,20.77
2018-02-19T10:55:04.541Z,20.80
2018-02-19T10:57:33.722Z,22.23
2018-02-19T11:00:02.141Z,21.17
2018-02-19T11:02:30.499Z,19.57
2018-02-19T11:04:58.891Z,23.77
2018-02-19T11:07:27.249Z,23.03
2018-02-19T11:09:55.643Z,21.07
2018-02-19T11:12:24.085Z,21.90
2018-02-19T11:14:52.463Z,21.10
2018-02-19T11:17:20.865Z,22.73
2018-02-19T11:19:49.232Z,23.90
2018-02-19T11:22:17.652Z,20.93
2018-02-19T11:24:46.834Z,22.43
2018-02-19T11:27:15.985Z,21.00
2018-02-19T11:29:44.374Z,21.20
2018-02-19T11:32:12.788Z,21.77
2018-02-19T11:34:41.944Z,22.27
2018-02-19T11:37:10.322Z,20.93
2018-02-19T11:39:38.715Z,22.00
2018-02-19T11:42:07.095Z,23.10
2018-02-19T11:44:35.476Z,22.13
2018-02-19T11:47:03.866Z,22.60
2018-02-19T11:49:32.321Z,20.50
2018-02-19T11:52:00.697Z,21.07
2018-02-19T11:54:29.075Z,21.17
2018-02-19T11:56:57.473Z,21.00
2018-02-19T11:59:25.851Z,21.50
2018-02-19T12:01:54.222Z,20.50
2018-02-19T12:04:22.652Z,22.20
2018-02-19T12:06:51.800Z,22.90
2018-02-19T12:09:20.186Z,21.20
2018-02-19T12:11:48.605Z,21.57
2018-02-19T12:14:17.720Z,21.33
2018-02-19T12:16:46.095Z,19.80
2018-02-19T12:19:14.478Z,20.77
2018-02-19T12:21:42.846Z,21.17
2018-02-19T12:24:11.233Z,18.50
2018-02-19T12:26:39.608Z,21.83
2018-02-19T12:29:08.098Z,19.53
2018-02-19T12:31:36.477Z,20.40
2018-02-19T12:34:04.870Z,20.00
2018-02-19T12:36:33.338Z,21.20
2018-02-19T12:39:01.731Z,21.33
2018-02-19T12:41:30.094Z,23.20
2018-02-19T12:43:58.471Z,20.43
2018-02-19T12:46:26.874Z,20.17
2018-02-19T12:48:56.017Z,22.47
2018-02-19T12:51:25.141Z,20.07
2018-02-19T12:53:53.581Z,19.80
2018-02-19T12:56:22.007Z,18.83
2018-02-19T12:58:50.401Z,19.30
2018-02-19T13:01:18.765Z,20.07
2018-02-19T13:06:44.266Z,21.60
2018-02-19T13:09:12.654Z,19.47
2018-02-19T13:18:52.702Z,21.60
2018-02-19T13:21:21.154Z,20.27
2018-02-19T13:23:49.566Z,21.17
2018-02-19T13:26:17.996Z,19.00
2018-02-19T13:28:46.414Z,20.30
2018-02-19T13:31:14.793Z,21.37
2018-02-19T13:33:43.203Z,20.80
2018-02-19T13:36:12.453Z,20.27
2018-02-19T13:38:40.841Z,22.10
2018-02-19T13:41:09.254Z,22.00
2018-02-19T13:43:39.043Z,20.70
2018-02-19T13:46:07.447Z,20.50
2018-02-19T13:48:35.834Z,20.50
2018-02-19T13:51:04.986Z,21.37
2018-02-19T13:53:33.365Z,21.23
2018-02-19T13:56:01.756Z,21.40
2018-02-19T13:58:30.169Z,22.30
2018-02-19T14:00:59.305Z,20.87
2018-02-19T14:03:27.668Z,19.40
2018-02-19T14:05:56.481Z,21.13
2018-02-19T14:08:24.871Z,22.40
2018-02-19T14:10:54.045Z,20.80
2018-02-19T14:13:22.414Z,19.10
2018-02-19T14:15:50.807Z,21.73
2018-02-19T14:18:19.535Z,19.70
2018-02-19T14:20:48.713Z,21.03
2018-02-19T14:23:17.137Z,21.07
2018-02-19T14:25:46.288Z,19.87
2018-02-19T14:28:14.667Z,20.93
2018-02-19T14:30:43.081Z,22.07
2018-02-19T14:33:12.476Z,20.37
2018-02-19T14:35:40.969Z,20.40
2018-02-19T14:38:09.379Z,21.60
2018-02-19T14:40:38.861Z,20.07
2018-02-19T14:43:08.323Z,20.50
2018-02-19T14:45:36.954Z,20.57
2018-02-19T14:48:05.532Z,22.73
2018-02-19T14:50:34.767Z,20.77
2018-02-19T14:53:03.273Z,21.43
2018-02-19T14:55:31.727Z,21.17
2018-02-19T14:58:00.179Z,19.67
2018-02-19T15:00:28.606Z,19.70
2018-02-19T15:02:56.979Z,21.03
2018-02-19T15:05:25.358Z,22.13
2018-02-19T15:07:53.822Z,22.23
2018-02-19T15:10:22.320Z,20.97
2018-02-19T15:12:50.704Z,18.63
2018-02-19T15:15:19.155Z,19.83
2018-02-19T15:17:47.546Z,19.30
2018-02-19T15:20:15.914Z,18.73
2018-02-19T15:22:44.293Z,19.63
2018-02-19T15:25:12.671Z,21.53
2018-02-19T15:27:41.070Z,20.87
2018-02-19T15:30:09.597Z,21.70
2018-02-19T15:32:38.756Z,19.90
2018-02-19T15:35:07.174Z,19.60
2018-02-19T15:37:36.344Z,19.10
2018-02-19T15:40:04.707Z,20.97
2018-02-19T15:42:33.160Z,21.47
2018-02-19T15:45:01.540Z,20.03
2018-02-19T15:47:29.917Z,20.77
2018-02-19T15:49:58.336Z,20.30
2018-02-19T15:52:26.706Z,20.03
2018-02-19T15:54:55.070Z,19.07
2018-02-19T15:57:23.449Z,19.77
2018-02-19T15:59:51.817Z,19.50
2018-02-19T16:02:20.206Z,20.87
2018-02-19T16:04:48.584Z,20.07
2018-02-19T16:07:16.965Z,18.53
2018-02-19T16:09:45.437Z,20.77
2018-02-19T16:12:13.799Z,21.00
2018-02-19T16:14:42.168Z,18.87
2018-02-19T16:17:10.566Z,21.00
2018-02-19T16:19:38.940Z,19.70
2018-02-19T16:22:07.391Z,20.27
2018-02-19T16:24:35.790Z,20.27
2018-02-19T16:27:04.162Z,21.23
2018-02-19T16:29:32.556Z,20.10
2018-02-19T16:32:01.024Z,22.73
2018-02-19T16:34:29.425Z,21.83
2018-02-19T16:36:57.814Z,21.70
2018-02-19T16:39:26.261Z,19.40
2018-02-19T16:41:54.656Z,21.43
2018-02-19T16:44:23.038Z,19.83
2018-02-19T16:46:51.417Z,21.53
2018-02-19T16:49:19.786Z,19.17
2018-02-19T16:51:48.185Z,20.50
2018-02-19T16:54:16.639Z,19.73
2018-02-19T16:56:45.009Z,22.57
2018-02-19T16:59:13.499Z,21.00
2018-02-19T17:01:41.869Z,21.77
2018-02-19T17:04:10.322Z,21.97
2018-02-19T17:06:39.466Z,28.27
2018-02-19T17:09:07.832Z,25.10
2018-02-19T17:11:36.264Z,25.60
2018-02-19T17:14:04.678Z,24.03
2018-02-19T17:16:33.066Z,24.07
2018-02-19T17:19:01.451Z,39.90
2018-02-19T17:21:29.859Z,27.90
2018-02-19T17:23:58.225Z,26.13
2018-02-19T17:26:26.602Z,23.60
2018-02-19T17:28:55.069Z,25.27
2018-02-19T17:31:23.448Z,25.20
2018-02-19T17:33:51.833Z,23.83
2018-02-19T17:36:20.212Z,24.43
2018-02-19T17:38:48.590Z,22.17
2018-02-19T17:41:16.967Z,24.47
2018-02-19T17:43:45.346Z,25.60
2018-02-19T17:46:13.740Z,25.53
2018-02-19T17:48:42.140Z,24.00
2018-02-19T17:51:10.516Z,26.83
2018-02-19T17:53:38.909Z,26.93
2018-02-19T17:56:08.065Z,28.20
2018-02-19T17:58:36.436Z,24.23
2018-02-19T18:01:04.825Z,24.40
2018-02-19T18:03:33.220Z,28.03
2018-02-19T18:06:01.590Z,26.00
2018-02-19T18:08:30.050Z,24.10
2018-02-19T18:10:58.439Z,24.47
2018-02-19T18:13:26.804Z,27.80
2018-02-19T18:15:55.180Z,30.57
2018-02-19T18:18:23.550Z,28.17
2018-02-19T18:20:51.935Z,26.93
2018-02-19T18:23:20.325Z,26.60
2018-02-19T18:25:48.773Z,26.30
2018-02-19T18:28:17.158Z,22.70
2018-02-19T18:30:45.538Z,26.17
2018-02-19T18:33:14.021Z,27.37
2018-02-19T18:35:42.406Z,27.03
2018-02-19T18:38:10.775Z,25.23
2018-02-19T18:40:39.280Z,26.70
2018-02-19T18:43:07.637Z,27.20
2018-02-19T18:45:36.010Z,27.13
2018-02-19T18:48:04.389Z,33.40
2018-02-19T18:50:32.752Z,41.10
2018-02-19T18:53:01.969Z,35.67
2018-02-19T18:55:30.337Z,31.03
2018-02-19T18:57:58.700Z,26.90
2018-02-19T19:00:27.838Z,31.23
2018-02-19T19:02:56.218Z,37.13
2018-02-19T19:05:24.601Z,30.70
2018-02-19T19:08:10.982Z,27.97
2018-02-19T19:10:52.802Z,32.10
2018-02-19T19:13:21.223Z,36.60
2018-02-19T19:15:49.659Z,38.60
2018-02-19T19:18:18.061Z,36.60
2018-02-19T19:20:46.434Z,33.50
2018-02-19T19:23:15.606Z,34.50
2018-02-19T19:25:44.017Z,36.33
2018-02-19T19:28:12.386Z,38.53
2018-02-19T19:30:40.765Z,35.00
2018-02-19T19:33:09.148Z,34.87
2018-02-19T19:35:37.547Z,35.13
2018-02-19T19:38:06.685Z,35.20
2018-02-19T19:40:35.049Z,37.40
2018-02-19T19:43:03.475Z,35.60
2018-02-19T19:45:31.854Z,36.77
2018-02-19T19:48:00.221Z,37.40
2018-02-19T19:50:28.611Z,39.17
2018-02-19T19:52:56.999Z,38.70
2018-02-19T19:55:25.375Z,34.07
2018-02-19T19:57:53.810Z,33.20
2018-02-19T20:00:22.369Z,34.33
2018-02-19T20:02:50.744Z,33.47
2018-02-19T20:05:19.934Z,30.90
2018-02-19T20:07:49.130Z,29.43
2018-02-19T20:10:17.525Z,30.70
2018-02-19T20:12:45.985Z,31.37
2018-02-19T20:15:15.121Z,28.90
2018-02-19T20:17:43.618Z,41.97
2018-02-19T20:20:12.010Z,45.57
2018-02-19T20:22:40.439Z,35.70
2018-02-19T20:25:08.822Z,31.73
2018-02-19T20:27:37.246Z,30.77
2018-02-19T20:30:05.680Z,30.43
2018-02-19T20:32:34.049Z,29.73
2018-02-19T20:35:02.472Z,30.37
2018-02-19T20:37:30.880Z,30.40
2018-02-19T20:39:59.503Z,31.30
2018-02-19T20:42:28.260Z,31.50
2018-02-19T20:44:56.718Z,29.40
2018-02-19T20:47:25.625Z,31.53
2018-02-19T20:49:54.014Z,28.70
2018-02-19T20:52:23.164Z,29.87
2018-02-19T20:54:51.623Z,29.10
2018-02-19T20:57:20.110Z,31.43
2018-02-19T20:59:48.486Z,30.70
2018-02-19T21:02:16.856Z,32.10
2018-02-19T21:04:45.241Z,28.17
2018-02-19T21:07:13.646Z,27.37
2018-02-19T21:09:42.041Z,29.67
2018-02-19T21:12:10.438Z,28.50
2018-02-19T21:14:38.808Z,31.13
2018-02-19T21:17:07.239Z,29.73
2018-02-19T21:19:35.618Z,33.70
2018-02-19T21:22:03.987Z,43.73
2018-02-19T21:24:32.390Z,43.00
2018-02-19T21:27:00.857Z,35.30
2018-02-19T21:29:29.234Z,32.30
2018-02-19T21:31:57.738Z,33.27
2018-02-19T21:34:26.149Z,32.13
2018-02-19T21:36:54.617Z,32.17
2018-02-19T21:39:23.254Z,33.50
2018-02-19T21:41:51.649Z,31.33
2018-02-19T21:44:20.042Z,35.90
2018-02-19T21:46:48.461Z,34.17
2018-02-19T21:49:17.732Z,38.00
2018-02-19T21:51:46.100Z,38.83
2018-02-19T21:54:14.517Z,35.20
2018-02-19T21:56:43.732Z,40.20
2018-02-19T21:59:12.974Z,34.10
2018-02-19T22:01:41.935Z,33.63
2018-02-19T22:04:10.305Z,33.10
2018-02-19T22:06:38.698Z,33.20
2018-02-19T22:09:07.091Z,33.00
2018-02-19T22:11:35.493Z,32.73
2018-02-19T22:14:03.860Z,35.00
2018-02-19T22:16:32.226Z,32.57
2018-02-19T22:19:00.635Z,30.30
2018-02-19T22:21:29.744Z,31.37
2018-02-19T22:23:58.159Z,30.57
2018-02-19T22:26:26.661Z,32.67
2018-02-19T22:28:55.046Z,34.77
2018-02-19T22:31:23.464Z,34.67
2018-02-19T22:33:52.614Z,32.40
2018-02-19T22:36:21.018Z,30.40
2018-02-19T22:38:49.409Z,34.60
2018-02-19T22:41:17.805Z,31.17
2018-02-19T22:43:46.955Z,32.50
2018-02-19T22:46:15.392Z,31.27
2018-02-19T22:48:44.497Z,33.73
2018-02-19T22:51:12.988Z,31.73
2018-02-19T22:53:41.579Z,30.00
2018-02-19T22:56:10.022Z,32.00
2018-02-19T22:58:39.324Z,30.10
2018-02-19T23:01:08.478Z,32.90
2018-02-19T23:03:36.875Z,33.90
2018-02-19T23:06:05.297Z,31.47
2018-02-19T23:08:33.713Z,32.27
2018-02-19T23:11:02.091Z,37.00
2018-02-19T23:13:30.471Z,35.00
2018-02-19T23:15:58.893Z,34.60
2018-02-19T23:18:28.030Z,35.30
2018-02-19T23:20:56.397Z,35.03
2018-02-19T23:23:24.796Z,35.03
2018-02-19T23:25:53.258Z,33.63
2018-02-19T23:28:21.630Z,34.57
2018-02-19T23:30:50.037Z,33.87
2018-02-19T23:33:18.431Z,35.27
2018-02-19T23:35:46.809Z,30.20
2018-02-19T23:38:15.193Z,35.00
2018-02-19T23:40:43.562Z,34.23
2018-02-19T23:43:11.998Z,34.33
2018-02-19T23:45:40.381Z,33.67
2018-02-19T23:48:08.774Z,36.40
2018-02-19T23:50:37.184Z,34.30
2018-02-19T23:53:05.576Z,34.43
2018-02-19T23:55:33.966Z,36.13
2018-02-19T23:58:03.140Z,33.20
